Time,TemperatureF,DewpointF,PressureIn,WindDirection,WindDirectionDegrees,WindSpeedMPH,WindSpeedGustMPH,Humidity,HourlyPrecipIn,Conditions,Clouds,dailyrainin,SoftwareType,DateUTC
2013-01-09 00:02:00,17.0,11.0,-100.00,ESE,114,2.0,5.0,78,0.00,,,0.00,,2013-01-09 07:02:00,
2013-01-09 00:12:00,17.0,11.0,-100.00,ESE,114,2.0,5.0,78,0.00,,,0.00,,2013-01-09 07:12:00,
2013-01-09 00:22:00,17.0,11.0,-100.00,ESE,114,2.0,5.0,78,0.00,,,0.00,,2013-01-09 07:22:00,
2013-01-09 00:52:00,16.0,10.0,-100.00,South,169,2.0,4.0,78,0.00,,,0.00,,2013-01-09 07:52:00,
2013-01-09 01:02:00,16.0,10.0,-100.00,South,169,2.0,4.0,78,0.00,,,0.00,,2013-01-09 08:02:00,
2013-01-09 01:12:00,16.0,10.0,-100.00,South,169,2.0,4.0,78,0.00,,,0.00,,2013-01-09 08:12:00,
2013-01-09 01:22:00,16.0,10.0,-100.00,South,169,2.0,4.0,78,0.00,,,0.00,,2013-01-09 08:22:00,
2013-01-09 01:53:00,16.0,11.0,-100.00,ENE,60,1.0,5.0,79,0.00,,,0.00,,2013-01-09 08:53:00,
2013-01-09 02:02:00,16.0,11.0,-100.00,ENE,60,1.0,5.0,79,0.00,,,0.00,,2013-01-09 09:02:00,
2013-01-09 02:12:00,16.0,11.0,-100.00,ENE,60,1.0,5.0,79,0.00,,,0.00,,2013-01-09 09:12:00,
2013-01-09 02:22:00,16.0,11.0,-100.00,ENE,60,1.0,5.0,79,0.00,,,0.00,,2013-01-09 09:22:00,
2013-01-09 02:53:00,17.0,10.0,-100.00,East,93,1.0,4.0,72,0.00,,,0.00,,2013-01-09 09:53:00,
2013-01-09 03:02:00,17.0,10.0,-100.00,East,93,1.0,4.0,72,0.00,,,0.00,,2013-01-09 10:02:00,
2013-01-09 03:12:00,17.0,10.0,-100.00,East,93,1.0,4.0,72,0.00,,,0.00,,2013-01-09 10:12:00,
2013-01-09 03:22:00,17.0,10.0,-100.00,East,93,1.0,4.0,72,0.00,,,0.00,,2013-01-09 10:22:00,
2013-01-09 03:52:00,19.0,10.0,-100.00,East,90,3.0,6.0,66,0.00,,,0.00,,2013-01-09 10:52:00,
2013-01-09 04:02:00,19.0,10.0,-100.00,East,90,3.0,6.0,66,0.00,,,0.00,,2013-01-09 11:02:00,
2013-01-09 04:12:00,19.0,10.0,-100.00,East,90,3.0,6.0,66,0.00,,,0.00,,2013-01-09 11:12:00,
2013-01-09 04:22:00,19.0,10.0,-100.00,East,90,3.0,6.0,66,0.00,,,0.00,,2013-01-09 11:22:00,
2013-01-09 04:53:00,18.0,8.0,-100.00,SE,140,0.0,3.0,65,0.00,,,0.00,,2013-01-09 11:53:00,
2013-01-09 05:03:00,18.0,8.0,-100.00,SE,140,0.0,3.0,65,0.00,,,0.00,,2013-01-09 12:03:00,
2013-01-09 05:12:00,18.0,8.0,-100.00,SE,140,0.0,3.0,65,0.00,,,0.00,,2013-01-09 12:12:00,
2013-01-09 05:23:00,18.0,8.0,-100.00,SE,140,0.0,3.0,65,0.00,,,0.00,,2013-01-09 12:23:00,
2013-01-09 05:53:00,18.0,8.0,-100.00,East,82,2.0,4.0,65,0.00,,,0.00,,2013-01-09 12:53:00,
2013-01-09 06:03:00,18.0,8.0,-100.00,East,82,2.0,4.0,65,0.00,,,0.00,,2013-01-09 13:03:00,
2013-01-09 06:12:00,18.0,8.0,-100.00,East,82,2.0,4.0,65,0.00,,,0.00,,2013-01-09 13:12:00,
2013-01-09 06:22:00,18.0,8.0,-100.00,East,82,2.0,4.0,65,0.00,,,0.00,,2013-01-09 13:22:00,
2013-01-09 06:53:00,19.0,7.0,-100.00,SSW,213,2.0,5.0,60,0.00,,,0.00,,2013-01-09 13:53:00,
2013-01-09 07:03:00,19.0,7.0,-100.00,SSW,213,2.0,5.0,60,0.00,,,0.00,,2013-01-09 14:03:00,
2013-01-09 07:12:00,19.0,7.0,-100.00,SSW,213,2.0,5.0,60,0.00,,,0.00,,2013-01-09 14:12:00,
2013-01-09 07:22:00,19.0,7.0,-100.00,SSW,213,2.0,5.0,60,0.00,,,0.00,,2013-01-09 14:22:00,
2013-01-09 07:53:00,19.0,7.0,-100.00,East,97,0.0,3.0,58,0.00,,,0.00,,2013-01-09 14:53:00,
2013-01-09 08:03:00,19.0,7.0,-100.00,East,97,0.0,3.0,58,0.00,,,0.00,,2013-01-09 15:03:00,
2013-01-09 08:12:00,19.0,7.0,-100.00,East,97,0.0,3.0,58,0.00,,,0.00,,2013-01-09 15:12:00,
2013-01-09 08:22:00,19.0,7.0,-100.00,East,97,0.0,3.0,58,0.00,,,0.00,,2013-01-09 15:22:00,
2013-01-09 08:53:00,26.0,9.0,-100.00,WSW,255,2.0,4.0,48,0.00,,,0.00,,2013-01-09 15:53:00,
2013-01-09 09:03:00,26.0,9.0,-100.00,WSW,255,2.0,4.0,48,0.00,,,0.00,,2013-01-09 16:03:00,
2013-01-09 09:12:00,26.0,9.0,-100.00,WSW,255,2.0,4.0,48,0.00,,,0.00,,2013-01-09 16:12:00,
2013-01-09 09:23:00,26.0,9.0,-100.00,WSW,255,2.0,4.0,48,0.00,,,0.00,,2013-01-09 16:23:00,
2013-01-09 09:53:00,36.0,13.0,-100.00,NNW,331,1.0,4.0,38,0.00,,,0.00,,2013-01-09 16:53:00,
2013-01-09 10:03:00,36.0,13.0,-100.00,NNW,331,1.0,4.0,38,0.00,,,0.00,,2013-01-09 17:03:00,
2013-01-09 10:12:00,36.0,13.0,-100.00,NNW,331,1.0,4.0,38,0.00,,,0.00,,2013-01-09 17:12:00,
2013-01-09 10:23:00,36.0,13.0,-100.00,NNW,331,1.0,4.0,38,0.00,,,0.00,,2013-01-09 17:23:00,
2013-01-09 10:53:00,39.0,12.0,-100.00,West,267,2.0,5.0,32,0.00,,,0.00,,2013-01-09 17:53:00,
2013-01-09 11:03:00,39.0,12.0,-100.00,West,267,2.0,5.0,32,0.00,,,0.00,,2013-01-09 18:03:00,
2013-01-09 11:12:00,39.0,12.0,-100.00,West,267,2.0,5.0,32,0.00,,,0.00,,2013-01-09 18:12:00,
2013-01-09 11:24:00,39.0,12.0,-100.00,West,267,2.0,5.0,32,0.00,,,0.00,,2013-01-09 18:24:00,
2013-01-09 11:53:00,41.0,10.0,-100.00,SSW,200,3.0,7.0,27,0.00,,,0.00,,2013-01-09 18:53:00,
2013-01-09 12:03:00,41.0,10.0,-100.00,SSW,200,3.0,7.0,27,0.00,,,0.00,,2013-01-09 19:03:00,
2013-01-09 12:13:00,41.0,10.0,-100.00,SSW,200,3.0,7.0,27,0.00,,,0.00,,2013-01-09 19:13:00,
2013-01-09 12:22:00,41.0,10.0,-100.00,SSW,200,3.0,7.0,27,0.00,,,0.00,,2013-01-09 19:22:00,
2013-01-09 12:53:00,42.0,8.0,-100.00,WSW,249,6.0,8.0,24,0.00,,,0.00,,2013-01-09 19:53:00,
2013-01-09 13:03:00,42.0,8.0,-100.00,WSW,249,6.0,8.0,24,0.00,,,0.00,,2013-01-09 20:03:00,
2013-01-09 13:12:00,42.0,8.0,-100.00,WSW,249,6.0,8.0,24,0.00,,,0.00,,2013-01-09 20:12:00,
2013-01-09 13:23:00,42.0,8.0,-100.00,WSW,249,6.0,8.0,24,0.00,,,0.00,,2013-01-09 20:23:00,
2013-01-09 13:53:00,43.0,8.0,-100.00,WSW,237,5.0,10.0,23,0.00,,,0.00,,2013-01-09 20:53:00,
2013-01-09 14:03:00,43.0,8.0,-100.00,WSW,237,5.0,10.0,23,0.00,,,0.00,,2013-01-09 21:03:00,
2013-01-09 14:13:00,43.0,8.0,-100.00,WSW,237,5.0,10.0,23,0.00,,,0.00,,2013-01-09 21:13:00,
2013-01-09 14:23:00,43.0,8.0,-100.00,WSW,237,5.0,10.0,23,0.00,,,0.00,,2013-01-09 21:23:00,
2013-01-09 14:53:00,44.0,4.0,-100.00,SW,225,7.0,12.0,19,0.00,,,0.00,,2013-01-09 21:53:00,
2013-01-09 15:03:00,44.0,4.0,-100.00,SW,225,7.0,12.0,19,0.00,,,0.00,,2013-01-09 22:03:00,
2013-01-09 15:12:00,44.0,4.0,-100.00,SW,225,7.0,12.0,19,0.00,,,0.00,,2013-01-09 22:12:00,
2013-01-09 15:22:00,44.0,4.0,-100.00,SW,225,7.0,12.0,19,0.00,,,0.00,,2013-01-09 22:22:00,
2013-01-09 15:52:00,42.0,9.0,-100.00,WSW,250,5.0,11.0,25,0.00,,,0.00,,2013-01-09 22:52:00,
2013-01-09 16:02:00,42.0,9.0,-100.00,WSW,250,5.0,11.0,25,0.00,,,0.00,,2013-01-09 23:02:00,
2013-01-09 16:13:00,42.0,9.0,-100.00,WSW,250,5.0,11.0,25,0.00,,,0.00,,2013-01-09 23:13:00,
2013-01-09 16:22:00,42.0,9.0,-100.00,WSW,250,5.0,11.0,25,0.00,,,0.00,,2013-01-09 23:22:00,
2013-01-09 16:53:00,35.0,9.0,-100.00,NE,53,3.0,8.0,34,0.00,,,0.00,,2013-01-09 23:53:00,
2013-01-09 17:03:00,35.0,9.0,-100.00,NE,53,3.0,8.0,34,0.00,,,0.00,,2013-01-10 00:03:00,
2013-01-09 17:12:00,35.0,9.0,-100.00,NE,53,3.0,8.0,34,0.00,,,0.00,,2013-01-10 00:12:00,
2013-01-09 17:22:00,35.0,9.0,-100.00,NE,53,3.0,8.0,34,0.00,,,0.00,,2013-01-10 00:22:00,
2013-01-09 17:53:00,31.0,1.0,-100.00,NNW,330,3.0,5.0,27,0.00,,,0.00,,2013-01-10 00:53:00,
2013-01-09 18:02:00,31.0,1.0,-100.00,NNW,330,3.0,5.0,27,0.00,,,0.00,,2013-01-10 01:02:00,
2013-01-09 18:12:00,31.0,1.0,-100.00,NNW,330,3.0,5.0,27,0.00,,,0.00,,2013-01-10 01:12:00,
2013-01-09 18:22:00,31.0,1.0,-100.00,NNW,330,3.0,5.0,27,0.00,,,0.00,,2013-01-10 01:22:00,
2013-01-09 18:53:00,30.0,2.0,-100.00,NNE,23,2.0,5.0,30,0.00,,,0.00,,2013-01-10 01:53:00,
2013-01-09 19:03:00,30.0,2.0,-100.00,NNE,23,2.0,5.0,30,0.00,,,0.00,,2013-01-10 02:03:00,
2013-01-09 19:12:00,30.0,2.0,-100.00,NNE,23,2.0,5.0,30,0.00,,,0.00,,2013-01-10 02:12:00,
2013-01-09 19:22:00,30.0,2.0,-100.00,NNE,23,2.0,5.0,30,0.00,,,0.00,,2013-01-10 02:22:00,
2013-01-09 20:03:00,32.0,1.0,-100.00,South,179,4.0,5.0,26,0.00,,,0.00,,2013-01-10 03:03:00,
2013-01-09 20:12:00,32.0,1.0,-100.00,South,179,4.0,5.0,26,0.00,,,0.00,,2013-01-10 03:12:00,
2013-01-09 20:22:00,32.0,1.0,-100.00,South,179,4.0,5.0,26,0.00,,,0.00,,2013-01-10 03:22:00,
2013-01-09 20:53:00,30.0,1.0,-100.00,SW,214,2.0,7.0,28,0.00,,,0.00,,2013-01-10 03:53:00,
2013-01-09 21:02:00,30.0,1.0,-100.00,SW,214,2.0,7.0,28,0.00,,,0.00,,2013-01-10 04:02:00,
2013-01-09 21:12:00,30.0,1.0,-100.00,SW,214,2.0,7.0,28,0.00,,,0.00,,2013-01-10 04:12:00,
2013-01-09 21:22:00,30.0,1.0,-100.00,SW,214,2.0,7.0,28,0.00,,,0.00,,2013-01-10 04:22:00,
2013-01-09 21:52:00,30.0,0.0,-100.00,WNW,297,4.0,6.0,27,0.00,,,0.00,,2013-01-10 04:52:00,
2013-01-09 22:03:00,30.0,0.0,-100.00,WNW,297,4.0,6.0,27,0.00,,,0.00,,2013-01-10 05:03:00,
2013-01-09 22:12:00,30.0,0.0,-100.00,WNW,297,4.0,6.0,27,0.00,,,0.00,,2013-01-10 05:12:00,
2013-01-09 22:22:00,30.0,0.0,-100.00,WNW,297,4.0,6.0,27,0.00,,,0.00,,2013-01-10 05:22:00,
2013-01-09 22:53:00,28.0,1.0,-100.00,North,352,1.0,5.0,31,0.00,,,0.00,,2013-01-10 05:53:00,
2013-01-09 23:02:00,28.0,1.0,-100.00,North,352,1.0,5.0,31,0.00,,,0.00,,2013-01-10 06:02:00,
2013-01-09 23:12:00,28.0,1.0,-100.00,North,352,1.0,5.0,31,0.00,,,0.00,,2013-01-10 06:12:00,
2013-01-09 23:22:00,28.0,1.0,-100.00,North,352,1.0,5.0,31,0.00,,,0.00,,2013-01-10 06:22:00,
2013-01-09 23:52:00,29.0,-2.0,-100.00,ESE,117,3.0,5.0,26,0.00,,,0.00,,2013-01-10 06:52:00,